sensor_id;sensor_type;location;lat;lon;timestamp;P1;durP1;ratioP1;P2;durP2;ratioP2
52614;SDS011;38508;53.158;6.614;2023-04-24T00:01:13;8.45;;;6.35;;
52614;SDS011;38508;53.158;6.614;2023-04-24T00:03:40;6.78;;;5.15;;
52614;SDS011;38508;53.158;6.614;2023-04-24T00:06:06;6.78;;;5.65;;
52614;SDS011;38508;53.158;6.614;2023-04-24T00:08:33;7.22;;;5.63;;
52614;SDS011;38508;53.158;6.614;2023-04-24T00:10:59;7.75;;;4.90;;
52614;SDS011;38508;53.158;6.614;2023-04-24T00:13:25;6.65;;;4.95;;
52614;SDS011;38508;53.158;6.614;2023-04-24T00:15:53;5.95;;;4.00;;
52614;SDS011;38508;53.158;6.614;2023-04-24T00:18:22;5.55;;;3.70;;
52614;SDS011;38508;53.158;6.614;2023-04-24T00:20:47;3.75;;;2.40;;
52614;SDS011;38508;53.158;6.614;2023-04-24T00:23:13;3.75;;;1.77;;
52614;SDS011;38508;53.158;6.614;2023-04-24T00:25:39;2.33;;;1.60;;
52614;SDS011;38508;53.158;6.614;2023-04-24T00:28:05;1.73;;;1.20;;
52614;SDS011;38508;53.158;6.614;2023-04-24T00:30:31;1.98;;;1.10;;
52614;SDS011;38508;53.158;6.614;2023-04-24T00:32:56;1.48;;;1.00;;
52614;SDS011;38508;53.158;6.614;2023-04-24T00:35:23;2.40;;;0.90;;
52614;SDS011;38508;53.158;6.614;2023-04-24T00:37:49;2.63;;;1.23;;
52614;SDS011;38508;53.158;6.614;2023-04-24T00:40:15;1.75;;;1.00;;
52614;SDS011;38508;53.158;6.614;2023-04-24T00:42:40;1.30;;;0.90;;
52614;SDS011;38508;53.158;6.614;2023-04-24T00:45:06;1.02;;;0.73;;
52614;SDS011;38508;53.158;6.614;2023-04-24T00:47:33;1.05;;;0.75;;
52614;SDS011;38508;53.158;6.614;2023-04-24T00:50:01;1.38;;;0.80;;
52614;SDS011;38508;53.158;6.614;2023-04-24T00:52:28;1.00;;;0.80;;
52614;SDS011;38508;53.158;6.614;2023-04-24T00:54:56;0.90;;;0.70;;
52614;SDS011;38508;53.158;6.614;2023-04-24T00:57:21;2.58;;;0.90;;
52614;SDS011;38508;53.158;6.614;2023-04-24T00:59:48;3.45;;;0.80;;
52614;SDS011;38508;53.158;6.614;2023-04-24T01:02:14;1.13;;;0.77;;
52614;SDS011;38508;53.158;6.614;2023-04-24T01:04:40;2.05;;;0.70;;
52614;SDS011;38508;53.158;6.614;2023-04-24T01:07:06;1.83;;;0.75;;
52614;SDS011;38508;53.158;6.614;2023-04-24T01:09:36;1.42;;;0.70;;
52614;SDS011;38508;53.158;6.614;2023-04-24T01:12:04;0.90;;;0.70;;
52614;SDS011;38508;53.158;6.614;2023-04-24T01:14:30;1.83;;;0.80;;
52614;SDS011;38508;53.158;6.614;2023-04-24T01:16:56;3.53;;;1.65;;
52614;SDS011;38508;53.158;6.614;2023-04-24T01:19:22;1.40;;;0.98;;
52614;SDS011;38508;53.158;6.614;2023-04-24T01:21:48;1.02;;;0.85;;
52614;SDS011;38508;53.158;6.614;2023-04-24T01:24:18;3.05;;;0.95;;
52614;SDS011;38508;53.158;6.614;2023-04-24T01:26:45;1.08;;;0.98;;
52614;SDS011;38508;53.158;6.614;2023-04-24T01:29:11;2.85;;;1.27;;
52614;SDS011;38508;53.158;6.614;2023-04-24T01:31:37;0.82;;;0.82;;
52614;SDS011;38508;53.158;6.614;2023-04-24T01:34:04;2.45;;;1.17;;
52614;SDS011;38508;53.158;6.614;2023-04-24T01:36:30;1.80;;;1.27;;
52614;SDS011;38508;53.158;6.614;2023-04-24T01:38:58;1.63;;;1.00;;
52614;SDS011;38508;53.158;6.614;2023-04-24T01:41:24;2.70;;;1.80;;
52614;SDS011;38508;53.158;6.614;2023-04-24T01:43:50;1.80;;;1.38;;
52614;SDS011;38508;53.158;6.614;2023-04-24T01:46:16;2.50;;;1.40;;
52614;SDS011;38508;53.158;6.614;2023-04-24T01:48:42;1.67;;;1.40;;
52614;SDS011;38508;53.158;6.614;2023-04-24T01:51:09;1.90;;;1.70;;
52614;SDS011;38508;53.158;6.614;2023-04-24T01:53:35;1.55;;;1.30;;
52614;SDS011;38508;53.158;6.614;2023-04-24T01:56:00;2.10;;;1.70;;
52614;SDS011;38508;53.158;6.614;2023-04-24T01:58:27;2.33;;;1.70;;
52614;SDS011;38508;53.158;6.614;2023-04-24T02:00:55;2.65;;;2.10;;
52614;SDS011;38508;53.158;6.614;2023-04-24T02:03:22;3.08;;;1.88;;
52614;SDS011;38508;53.158;6.614;2023-04-24T02:05:47;2.22;;;1.85;;
52614;SDS011;38508;53.158;6.614;2023-04-24T02:08:13;2.30;;;2.10;;
52614;SDS011;38508;53.158;6.614;2023-04-24T02:10:38;3.25;;;2.88;;
52614;SDS011;38508;53.158;6.614;2023-04-24T02:13:04;3.08;;;2.78;;
52614;SDS011;38508;53.158;6.614;2023-04-24T02:15:30;3.30;;;2.50;;
52614;SDS011;38508;53.158;6.614;2023-04-24T02:17:56;3.17;;;2.88;;
52614;SDS011;38508;53.158;6.614;2023-04-24T02:20:22;7.75;;;4.05;;
52614;SDS011;38508;53.158;6.614;2023-04-24T02:22:48;4.25;;;3.55;;
52614;SDS011;38508;53.158;6.614;2023-04-24T02:25:14;8.07;;;5.20;;
52614;SDS011;38508;53.158;6.614;2023-04-24T02:27:40;4.45;;;4.05;;
52614;SDS011;38508;53.158;6.614;2023-04-24T02:30:05;6.70;;;4.80;;
52614;SDS011;38508;53.158;6.614;2023-04-24T02:32:32;5.40;;;4.60;;
52614;SDS011;38508;53.158;6.614;2023-04-24T02:34:59;5.30;;;4.65;;
52614;SDS011;38508;53.158;6.614;2023-04-24T02:37:24;8.48;;;6.03;;
52614;SDS011;38508;53.158;6.614;2023-04-24T02:39:50;9.50;;;5.90;;
52614;SDS011;38508;53.158;6.614;2023-04-24T02:42:15;6.03;;;5.43;;
52614;SDS011;38508;53.158;6.614;2023-04-24T02:44:41;5.82;;;5.05;;
52614;SDS011;38508;53.158;6.614;2023-04-24T02:47:07;8.27;;;6.55;;
52614;SDS011;38508;53.158;6.614;2023-04-24T02:49:33;7.03;;;6.03;;
52614;SDS011;38508;53.158;6.614;2023-04-24T02:51:59;10.60;;;7.30;;
52614;SDS011;38508;53.158;6.614;2023-04-24T02:54:24;9.35;;;7.07;;
52614;SDS011;38508;53.158;6.614;2023-04-24T02:56:50;6.30;;;5.65;;
52614;SDS011;38508;53.158;6.614;2023-04-24T02:59:16;6.10;;;5.40;;
52614;SDS011;38508;53.158;6.614;2023-04-24T03:01:42;9.82;;;6.97;;
52614;SDS011;38508;53.158;6.614;2023-04-24T03:04:07;8.75;;;7.30;;
52614;SDS011;38508;53.158;6.614;2023-04-24T03:06:33;7.93;;;6.70;;
52614;SDS011;38508;53.158;6.614;2023-04-24T03:09:00;6.68;;;5.88;;
52614;SDS011;38508;53.158;6.614;2023-04-24T03:11:26;13.00;;;7.85;;
52614;SDS011;38508;53.158;6.614;2023-04-24T03:13:52;7.18;;;6.35;;
52614;SDS011;38508;53.158;6.614;2023-04-24T03:16:17;6.10;;;5.40;;
52614;SDS011;38508;53.158;6.614;2023-04-24T03:18:43;9.57;;;6.55;;
52614;SDS011;38508;53.158;6.614;2023-04-24T03:21:08;8.35;;;6.95;;
52614;SDS011;38508;53.158;6.614;2023-04-24T03:23:34;10.65;;;8.38;;
52614;SDS011;38508;53.158;6.614;2023-04-24T03:26:00;10.88;;;8.18;;
52614;SDS011;38508;53.158;6.614;2023-04-24T03:28:27;9.55;;;8.00;;
52614;SDS011;38508;53.158;6.614;2023-04-24T03:30:52;10.30;;;8.98;;
52614;SDS011;38508;53.158;6.614;2023-04-24T03:33:18;12.85;;;10.10;;
52614;SDS011;38508;53.158;6.614;2023-04-24T03:35:44;12.07;;;10.75;;
52614;SDS011;38508;53.158;6.614;2023-04-24T03:38:10;10.52;;;9.43;;
52614;SDS011;38508;53.158;6.614;2023-04-24T03:40:35;11.90;;;9.38;;
52614;SDS011;38508;53.158;6.614;2023-04-24T03:43:01;10.52;;;9.43;;
52614;SDS011;38508;53.158;6.614;2023-04-24T03:45:27;11.07;;;9.45;;
52614;SDS011;38508;53.158;6.614;2023-04-24T03:47:53;16.65;;;12.30;;
52614;SDS011;38508;53.158;6.614;2023-04-24T03:50:18;15.50;;;12.13;;
52614;SDS011;38508;53.158;6.614;2023-04-24T03:52:44;14.25;;;11.35;;
52614;SDS011;38508;53.158;6.614;2023-04-24T03:55:10;11.27;;;10.00;;
52614;SDS011;38508;53.158;6.614;2023-04-24T03:57:37;10.65;;;9.07;;
52614;SDS011;38508;53.158;6.614;2023-04-24T04:00:05;9.52;;;8.52;;
52614;SDS011;38508;53.158;6.614;2023-04-24T04:02:31;9.63;;;8.63;;
52614;SDS011;38508;53.158;6.614;2023-04-24T04:04:57;11.43;;;9.13;;
52614;SDS011;38508;53.158;6.614;2023-04-24T04:07:22;9.20;;;8.20;;
52614;SDS011;38508;53.158;6.614;2023-04-24T04:09:48;8.73;;;7.70;;
52614;SDS011;38508;53.158;6.614;2023-04-24T04:12:13;10.85;;;7.70;;
52614;SDS011;38508;53.158;6.614;2023-04-24T04:14:39;13.38;;;9.18;;
52614;SDS011;38508;53.158;6.614;2023-04-24T04:17:05;9.38;;;7.70;;
52614;SDS011;38508;53.158;6.614;2023-04-24T04:19:30;9.27;;;6.57;;
52614;SDS011;38508;53.158;6.614;2023-04-24T04:21:56;7.20;;;6.50;;
52614;SDS011;38508;53.158;6.614;2023-04-24T04:24:22;8.55;;;6.97;;
52614;SDS011;38508;53.158;6.614;2023-04-24T04:26:49;10.18;;;6.57;;
52614;SDS011;38508;53.158;6.614;2023-04-24T04:29:16;7.90;;;6.72;;
52614;SDS011;38508;53.158;6.614;2023-04-24T04:31:43;8.15;;;6.05;;
52614;SDS011;38508;53.158;6.614;2023-04-24T04:34:09;9.18;;;6.03;;
52614;SDS011;38508;53.158;6.614;2023-04-24T04:36:36;7.47;;;6.60;;
52614;SDS011;38508;53.158;6.614;2023-04-24T04:39:05;7.00;;;5.43;;
52614;SDS011;38508;53.158;6.614;2023-04-24T04:41:31;8.68;;;5.75;;
52614;SDS011;38508;53.158;6.614;2023-04-24T04:44:00;9.52;;;7.47;;
52614;SDS011;38508;53.158;6.614;2023-04-24T04:46:26;6.82;;;5.50;;
52614;SDS011;38508;53.158;6.614;2023-04-24T04:48:52;9.02;;;6.25;;
52614;SDS011;38508;53.158;6.614;2023-04-24T04:51:19;6.97;;;5.72;;
52614;SDS011;38508;53.158;6.614;2023-04-24T04:53:45;7.25;;;5.60;;
52614;SDS011;38508;53.158;6.614;2023-04-24T04:56:10;6.60;;;5.68;;
52614;SDS011;38508;53.158;6.614;2023-04-24T04:58:36;7.05;;;5.63;;
52614;SDS011;38508;53.158;6.614;2023-04-24T05:01:02;10.98;;;7.38;;
52614;SDS011;38508;53.158;6.614;2023-04-24T05:03:27;6.63;;;5.30;;
52614;SDS011;38508;53.158;6.614;2023-04-24T05:05:53;7.35;;;5.28;;
52614;SDS011;38508;53.158;6.614;2023-04-24T05:08:19;6.85;;;5.53;;
52614;SDS011;38508;53.158;6.614;2023-04-24T05:10:44;6.10;;;4.75;;
52614;SDS011;38508;53.158;6.614;2023-04-24T05:13:10;5.60;;;4.50;;
52614;SDS011;38508;53.158;6.614;2023-04-24T05:15:36;8.32;;;4.85;;
52614;SDS011;38508;53.158;6.614;2023-04-24T05:18:01;5.40;;;4.53;;
52614;SDS011;38508;53.158;6.614;2023-04-24T05:20:28;4.65;;;4.15;;
52614;SDS011;38508;53.158;6.614;2023-04-24T05:22:53;7.97;;;5.10;;
52614;SDS011;38508;53.158;6.614;2023-04-24T05:25:19;6.75;;;5.35;;
52614;SDS011;38508;53.158;6.614;2023-04-24T05:27:45;4.82;;;3.95;;
52614;SDS011;38508;53.158;6.614;2023-04-24T05:30:11;5.78;;;3.70;;
52614;SDS011;38508;53.158;6.614;2023-04-24T05:32:37;5.47;;;3.72;;
52614;SDS011;38508;53.158;6.614;2023-04-24T05:35:03;7.43;;;4.47;;
52614;SDS011;38508;53.158;6.614;2023-04-24T05:37:29;3.78;;;3.10;;
52614;SDS011;38508;53.158;6.614;2023-04-24T05:39:55;4.40;;;3.47;;
52614;SDS011;38508;53.158;6.614;2023-04-24T05:42:20;5.10;;;3.40;;
52614;SDS011;38508;53.158;6.614;2023-04-24T05:44:46;9.00;;;5.05;;
52614;SDS011;38508;53.158;6.614;2023-04-24T05:47:12;4.40;;;3.67;;
52614;SDS011;38508;53.158;6.614;2023-04-24T05:49:37;4.72;;;3.25;;
52614;SDS011;38508;53.158;6.614;2023-04-24T05:52:03;5.03;;;3.75;;
52614;SDS011;38508;53.158;6.614;2023-04-24T05:54:30;4.20;;;3.45;;
52614;SDS011;38508;53.158;6.614;2023-04-24T05:56:56;6.40;;;3.95;;
52614;SDS011;38508;53.158;6.614;2023-04-24T05:59:21;4.63;;;3.60;;
52614;SDS011;38508;53.158;6.614;2023-04-24T06:01:47;5.60;;;3.92;;
52614;SDS011;38508;53.158;6.614;2023-04-24T06:04:13;6.55;;;3.88;;
52614;SDS011;38508;53.158;6.614;2023-04-24T06:06:39;3.80;;;2.40;;
52614;SDS011;38508;53.158;6.614;2023-04-24T06:09:05;4.18;;;2.60;;
52614;SDS011;38508;53.158;6.614;2023-04-24T06:11:31;6.20;;;3.10;;
52614;SDS011;38508;53.158;6.614;2023-04-24T06:13:57;4.43;;;3.08;;
52614;SDS011;38508;53.158;6.614;2023-04-24T06:16:23;5.93;;;3.05;;
52614;SDS011;38508;53.158;6.614;2023-04-24T06:18:48;6.65;;;3.50;;
52614;SDS011;38508;53.158;6.614;2023-04-24T06:21:15;6.30;;;3.90;;
52614;SDS011;38508;53.158;6.614;2023-04-24T06:23:41;5.20;;;3.92;;
52614;SDS011;38508;53.158;6.614;2023-04-24T06:26:07;7.40;;;4.30;;
52614;SDS011;38508;53.158;6.614;2023-04-24T06:28:32;6.32;;;4.65;;
52614;SDS011;38508;53.158;6.614;2023-04-24T06:30:58;6.97;;;4.07;;
52614;SDS011;38508;53.158;6.614;2023-04-24T06:33:24;6.72;;;3.88;;
52614;SDS011;38508;53.158;6.614;2023-04-24T06:35:49;8.00;;;5.32;;
52614;SDS011;38508;53.158;6.614;2023-04-24T06:38:15;8.35;;;5.15;;
52614;SDS011;38508;53.158;6.614;2023-04-24T06:40:41;10.65;;;6.18;;
52614;SDS011;38508;53.158;6.614;2023-04-24T06:43:06;13.75;;;7.63;;
52614;SDS011;38508;53.158;6.614;2023-04-24T06:45:32;11.75;;;7.15;;
52614;SDS011;38508;53.158;6.614;2023-04-24T06:47:58;12.68;;;6.35;;
52614;SDS011;38508;53.158;6.614;2023-04-24T06:50:23;13.85;;;8.07;;
52614;SDS011;38508;53.158;6.614;2023-04-24T06:52:49;11.57;;;7.65;;
52614;SDS011;38508;53.158;6.614;2023-04-24T06:55:15;19.50;;;9.45;;
52614;SDS011;38508;53.158;6.614;2023-04-24T06:57:41;13.60;;;8.40;;
52614;SDS011;38508;53.158;6.614;2023-04-24T07:00:07;17.63;;;9.50;;
52614;SDS011;38508;53.158;6.614;2023-04-24T07:02:34;19.50;;;9.60;;
52614;SDS011;38508;53.158;6.614;2023-04-24T07:05:00;14.15;;;7.30;;
52614;SDS011;38508;53.158;6.614;2023-04-24T07:07:26;10.70;;;6.25;;
52614;SDS011;38508;53.158;6.614;2023-04-24T07:09:52;9.90;;;5.93;;
52614;SDS011;38508;53.158;6.614;2023-04-24T07:12:19;8.77;;;4.60;;
52614;SDS011;38508;53.158;6.614;2023-04-24T07:14:46;15.00;;;5.40;;
52614;SDS011;38508;53.158;6.614;2023-04-24T07:17:13;11.13;;;4.63;;
52614;SDS011;38508;53.158;6.614;2023-04-24T07:19:39;7.63;;;4.07;;
52614;SDS011;38508;53.158;6.614;2023-04-24T07:22:05;6.72;;;3.78;;
52614;SDS011;38508;53.158;6.614;2023-04-24T07:24:31;7.15;;;3.67;;
52614;SDS011;38508;53.158;6.614;2023-04-24T07:26:57;10.90;;;3.72;;
52614;SDS011;38508;53.158;6.614;2023-04-24T07:29:24;6.47;;;2.92;;
52614;SDS011;38508;53.158;6.614;2023-04-24T07:31:50;7.05;;;3.60;;
52614;SDS011;38508;53.158;6.614;2023-04-24T07:34:16;6.18;;;2.53;;
52614;SDS011;38508;53.158;6.614;2023-04-24T07:36:41;6.68;;;3.55;;
52614;SDS011;38508;53.158;6.614;2023-04-24T07:39:07;8.82;;;3.03;;
52614;SDS011;38508;53.158;6.614;2023-04-24T07:41:33;7.70;;;3.35;;
52614;SDS011;38508;53.158;6.614;2023-04-24T07:43:59;11.05;;;3.28;;
52614;SDS011;38508;53.158;6.614;2023-04-24T07:46:25;6.65;;;3.63;;
52614;SDS011;38508;53.158;6.614;2023-04-24T07:48:52;7.30;;;3.50;;
52614;SDS011;38508;53.158;6.614;2023-04-24T07:51:18;9.43;;;4.20;;
52614;SDS011;38508;53.158;6.614;2023-04-24T07:53:44;6.57;;;3.60;;
52614;SDS011;38508;53.158;6.614;2023-04-24T07:56:10;7.68;;;4.22;;
52614;SDS011;38508;53.158;6.614;2023-04-24T07:58:36;9.35;;;3.70;;
52614;SDS011;38508;53.158;6.614;2023-04-24T08:01:01;10.07;;;4.40;;
52614;SDS011;38508;53.158;6.614;2023-04-24T08:03:27;11.10;;;4.50;;
52614;SDS011;38508;53.158;6.614;2023-04-24T08:05:53;10.27;;;4.18;;
52614;SDS011;38508;53.158;6.614;2023-04-24T08:08:20;15.55;;;4.72;;
52614;SDS011;38508;53.158;6.614;2023-04-24T08:10:46;14.02;;;5.57;;
52614;SDS011;38508;53.158;6.614;2023-04-24T08:13:12;14.73;;;6.28;;
52614;SDS011;38508;53.158;6.614;2023-04-24T08:15:38;14.80;;;7.07;;
52614;SDS011;38508;53.158;6.614;2023-04-24T08:18:04;21.70;;;9.15;;
52614;SDS011;38508;53.158;6.614;2023-04-24T08:20:29;20.58;;;10.13;;
52614;SDS011;38508;53.158;6.614;2023-04-24T08:22:55;19.92;;;10.35;;
52614;SDS011;38508;53.158;6.614;2023-04-24T08:25:21;30.83;;;13.10;;
52614;SDS011;38508;53.158;6.614;2023-04-24T08:27:48;33.50;;;14.52;;
52614;SDS011;38508;53.158;6.614;2023-04-24T08:30:14;27.33;;;13.98;;
52614;SDS011;38508;53.158;6.614;2023-04-24T08:32:40;31.77;;;14.52;;
52614;SDS011;38508;53.158;6.614;2023-04-24T08:35:06;33.50;;;15.88;;
52614;SDS011;38508;53.158;6.614;2023-04-24T08:37:34;37.75;;;16.77;;
52614;SDS011;38508;53.158;6.614;2023-04-24T08:40:01;36.25;;;16.33;;
52614;SDS011;38508;53.158;6.614;2023-04-24T08:42:32;39.47;;;16.75;;
52614;SDS011;38508;53.158;6.614;2023-04-24T08:45:02;37.70;;;16.58;;
52614;SDS011;38508;53.158;6.614;2023-04-24T08:47:27;33.28;;;16.60;;
52614;SDS011;38508;53.158;6.614;2023-04-24T08:49:54;38.08;;;15.93;;
52614;SDS011;38508;53.158;6.614;2023-04-24T08:52:21;37.55;;;17.10;;
52614;SDS011;38508;53.158;6.614;2023-04-24T08:54:47;34.78;;;16.35;;
52614;SDS011;38508;53.158;6.614;2023-04-24T08:57:14;36.22;;;14.85;;
52614;SDS011;38508;53.158;6.614;2023-04-24T08:59:40;30.80;;;15.63;;
52614;SDS011;38508;53.158;6.614;2023-04-24T09:02:06;29.73;;;15.65;;
52614;SDS011;38508;53.158;6.614;2023-04-24T09:04:35;36.70;;;16.20;;
52614;SDS011;38508;53.158;6.614;2023-04-24T09:07:02;33.58;;;14.98;;
52614;SDS011;38508;53.158;6.614;2023-04-24T09:09:31;27.48;;;13.80;;
52614;SDS011;38508;53.158;6.614;2023-04-24T09:11:57;30.60;;;13.95;;
52614;SDS011;38508;53.158;6.614;2023-04-24T09:14:24;26.73;;;14.18;;
52614;SDS011;38508;53.158;6.614;2023-04-24T09:16:51;32.15;;;15.75;;
52614;SDS011;38508;53.158;6.614;2023-04-24T09:19:16;37.00;;;16.20;;
52614;SDS011;38508;53.158;6.614;2023-04-24T09:21:45;33.00;;;15.02;;
52614;SDS011;38508;53.158;6.614;2023-04-24T09:24:15;26.92;;;13.70;;
52614;SDS011;38508;53.158;6.614;2023-04-24T09:26:47;28.83;;;14.05;;
52614;SDS011;38508;53.158;6.614;2023-04-24T09:29:14;29.52;;;13.98;;
52614;SDS011;38508;53.158;6.614;2023-04-24T09:31:41;30.48;;;13.68;;
52614;SDS011;38508;53.158;6.614;2023-04-24T09:34:08;31.75;;;13.93;;
52614;SDS011;38508;53.158;6.614;2023-04-24T09:36:37;25.02;;;10.73;;
52614;SDS011;38508;53.158;6.614;2023-04-24T09:39:07;23.05;;;10.93;;
52614;SDS011;38508;53.158;6.614;2023-04-24T09:41:35;17.80;;;9.02;;
52614;SDS011;38508;53.158;6.614;2023-04-24T09:44:20;23.33;;;9.73;;
52614;SDS011;38508;53.158;6.614;2023-04-24T09:46:59;18.70;;;8.82;;
52614;SDS011;38508;53.158;6.614;2023-04-24T09:49:29;16.15;;;9.30;;
52614;SDS011;38508;53.158;6.614;2023-04-24T09:52:04;18.98;;;9.80;;
52614;SDS011;38508;53.158;6.614;2023-04-24T09:54:34;19.80;;;10.00;;
52614;SDS011;38508;53.158;6.614;2023-04-24T09:57:01;19.65;;;8.57;;
52614;SDS011;38508;53.158;6.614;2023-04-24T09:59:27;21.80;;;8.95;;
52614;SDS011;38508;53.158;6.614;2023-04-24T10:01:54;18.40;;;8.13;;
52614;SDS011;38508;53.158;6.614;2023-04-24T10:04:21;19.05;;;8.68;;
52614;SDS011;38508;53.158;6.614;2023-04-24T10:06:52;20.33;;;7.32;;
52614;SDS011;38508;53.158;6.614;2023-04-24T10:09:20;20.92;;;7.22;;
52614;SDS011;38508;53.158;6.614;2023-04-24T10:11:49;21.25;;;7.13;;
52614;SDS011;38508;53.158;6.614;2023-04-24T10:14:16;14.80;;;6.22;;
52614;SDS011;38508;53.158;6.614;2023-04-24T10:16:44;16.50;;;5.75;;
52614;SDS011;38508;53.158;6.614;2023-04-24T10:19:12;15.00;;;5.30;;
52614;SDS011;38508;53.158;6.614;2023-04-24T10:21:39;9.25;;;4.28;;
52614;SDS011;38508;53.158;6.614;2023-04-24T10:24:14;8.65;;;4.28;;
52614;SDS011;38508;53.158;6.614;2023-04-24T10:26:45;6.78;;;2.95;;
52614;SDS011;38508;53.158;6.614;2023-04-24T10:29:13;10.80;;;3.35;;
52614;SDS011;38508;53.158;6.614;2023-04-24T10:31:42;17.83;;;3.97;;
52614;SDS011;38508;53.158;6.614;2023-04-24T10:34:17;8.88;;;3.08;;
52614;SDS011;38508;53.158;6.614;2023-04-24T10:36:47;10.57;;;3.38;;
52614;SDS011;38508;53.158;6.614;2023-04-24T10:39:15;13.48;;;3.80;;
52614;SDS011;38508;53.158;6.614;2023-04-24T10:41:42;13.18;;;3.95;;
52614;SDS011;38508;53.158;6.614;2023-04-24T10:44:09;8.55;;;2.65;;
52614;SDS011;38508;53.158;6.614;2023-04-24T10:46:36;8.43;;;2.55;;
52614;SDS011;38508;53.158;6.614;2023-04-24T10:49:04;10.25;;;3.22;;
52614;SDS011;38508;53.158;6.614;2023-04-24T10:54:29;9.25;;;2.50;;
52614;SDS011;38508;53.158;6.614;2023-04-24T10:59:43;14.55;;;2.38;;
52614;SDS011;38508;53.158;6.614;2023-04-24T11:02:09;12.88;;;2.60;;
52614;SDS011;38508;53.158;6.614;2023-04-24T11:04:35;8.75;;;2.30;;
52614;SDS011;38508;53.158;6.614;2023-04-24T11:07:02;12.95;;;3.00;;
52614;SDS011;38508;53.158;6.614;2023-04-24T11:09:31;12.48;;;2.83;;
52614;SDS011;38508;53.158;6.614;2023-04-24T11:12:04;7.55;;;2.33;;
52614;SDS011;38508;53.158;6.614;2023-04-24T11:17:30;8.65;;;2.50;;
52614;SDS011;38508;53.158;6.614;2023-04-24T11:20:03;11.63;;;2.50;;
52614;SDS011;38508;53.158;6.614;2023-04-24T11:22:32;9.63;;;1.92;;
52614;SDS011;38508;53.158;6.614;2023-04-24T11:25:00;10.82;;;1.50;;
52614;SDS011;38508;53.158;6.614;2023-04-24T11:27:29;6.35;;;1.90;;
52614;SDS011;38508;53.158;6.614;2023-04-24T11:32:26;7.88;;;1.35;;
52614;SDS011;38508;53.158;6.614;2023-04-24T11:34:55;8.60;;;1.50;;
52614;SDS011;38508;53.158;6.614;2023-04-24T11:37:36;7.53;;;1.55;;
52614;SDS011;38508;53.158;6.614;2023-04-24T11:40:04;7.22;;;1.90;;
52614;SDS011;38508;53.158;6.614;2023-04-24T11:42:37;11.02;;;2.35;;
52614;SDS011;38508;53.158;6.614;2023-04-24T11:45:14;6.80;;;1.85;;
52614;SDS011;38508;53.158;6.614;2023-04-24T11:47:41;6.25;;;1.70;;
52614;SDS011;38508;53.158;6.614;2023-04-24T11:50:09;8.40;;;1.98;;
52614;SDS011;38508;53.158;6.614;2023-04-24T11:52:43;11.90;;;1.75;;
52614;SDS011;38508;53.158;6.614;2023-04-24T11:57:47;6.43;;;1.55;;
52614;SDS011;38508;53.158;6.614;2023-04-24T12:00:18;7.22;;;1.35;;
52614;SDS011;38508;53.158;6.614;2023-04-24T12:02:48;13.23;;;1.85;;
52614;SDS011;38508;53.158;6.614;2023-04-24T12:05:25;6.45;;;1.52;;
52614;SDS011;38508;53.158;6.614;2023-04-24T12:10:23;7.43;;;1.57;;
52614;SDS011;38508;53.158;6.614;2023-04-24T12:12:50;7.00;;;1.17;;
52614;SDS011;38508;53.158;6.614;2023-04-24T12:15:17;6.38;;;1.85;;
52614;SDS011;38508;53.158;6.614;2023-04-24T12:17:44;9.00;;;1.33;;
52614;SDS011;38508;53.158;6.614;2023-04-24T12:20:10;4.85;;;1.27;;
52614;SDS011;38508;53.158;6.614;2023-04-24T12:25:16;9.43;;;1.33;;
52614;SDS011;38508;53.158;6.614;2023-04-24T12:27:46;7.45;;;1.20;;
52614;SDS011;38508;53.158;6.614;2023-04-24T12:30:20;9.45;;;1.55;;
52614;SDS011;38508;53.158;6.614;2023-04-24T12:32:51;11.52;;;1.20;;
52614;SDS011;38508;53.158;6.614;2023-04-24T12:35:20;7.07;;;1.35;;
52614;SDS011;38508;53.158;6.614;2023-04-24T12:37:47;8.90;;;1.42;;
52614;SDS011;38508;53.158;6.614;2023-04-24T12:40:13;6.60;;;1.40;;
52614;SDS011;38508;53.158;6.614;2023-04-24T12:42:47;6.15;;;1.00;;
52614;SDS011;38508;53.158;6.614;2023-04-24T12:45:16;2.47;;;0.90;;
52614;SDS011;38508;53.158;6.614;2023-04-24T12:47:43;3.60;;;1.00;;
52614;SDS011;38508;53.158;6.614;2023-04-24T12:50:11;4.95;;;0.85;;
52614;SDS011;38508;53.158;6.614;2023-04-24T12:52:38;5.28;;;0.80;;
52614;SDS011;38508;53.158;6.614;2023-04-24T12:55:04;4.53;;;0.80;;
52614;SDS011;38508;53.158;6.614;2023-04-24T12:57:33;9.20;;;1.15;;
52614;SDS011;38508;53.158;6.614;2023-04-24T13:00:00;10.70;;;1.02;;
52614;SDS011;38508;53.158;6.614;2023-04-24T13:02:29;5.82;;;0.93;;
52614;SDS011;38508;53.158;6.614;2023-04-24T13:04:56;9.45;;;1.27;;
52614;SDS011;38508;53.158;6.614;2023-04-24T13:07:25;8.05;;;1.05;;
52614;SDS011;38508;53.158;6.614;2023-04-24T13:09:51;4.47;;;0.98;;
52614;SDS011;38508;53.158;6.614;2023-04-24T13:12:17;4.40;;;0.77;;
52614;SDS011;38508;53.158;6.614;2023-04-24T13:14:43;9.63;;;1.23;;
52614;SDS011;38508;53.158;6.614;2023-04-24T13:17:10;5.60;;;0.80;;
52614;SDS011;38508;53.158;6.614;2023-04-24T13:19:37;7.35;;;0.90;;
52614;SDS011;38508;53.158;6.614;2023-04-24T13:22:06;6.40;;;1.00;;
52614;SDS011;38508;53.158;6.614;2023-04-24T13:24:33;9.40;;;1.20;;
52614;SDS011;38508;53.158;6.614;2023-04-24T13:26:59;4.13;;;0.70;;
52614;SDS011;38508;53.158;6.614;2023-04-24T13:29:26;3.45;;;0.90;;
52614;SDS011;38508;53.158;6.614;2023-04-24T13:31:52;6.47;;;0.73;;
52614;SDS011;38508;53.158;6.614;2023-04-24T13:34:22;3.65;;;0.77;;
52614;SDS011;38508;53.158;6.614;2023-04-24T13:36:49;5.15;;;0.55;;
52614;SDS011;38508;53.158;6.614;2023-04-24T13:39:16;3.58;;;0.65;;
52614;SDS011;38508;53.158;6.614;2023-04-24T13:41:42;3.20;;;0.40;;
52614;SDS011;38508;53.158;6.614;2023-04-24T13:44:08;2.65;;;0.30;;
52614;SDS011;38508;53.158;6.614;2023-04-24T13:46:34;4.80;;;0.20;;
52614;SDS011;38508;53.158;6.614;2023-04-24T13:49:01;6.40;;;0.80;;
52614;SDS011;38508;53.158;6.614;2023-04-24T13:51:28;8.23;;;0.55;;
52614;SDS011;38508;53.158;6.614;2023-04-24T13:53:54;4.50;;;0.90;;
52614;SDS011;38508;53.158;6.614;2023-04-24T13:56:21;11.35;;;1.05;;
52614;SDS011;38508;53.158;6.614;2023-04-24T13:58:47;5.78;;;0.88;;
52614;SDS011;38508;53.158;6.614;2023-04-24T14:01:13;5.47;;;0.63;;
52614;SDS011;38508;53.158;6.614;2023-04-24T14:03:40;5.25;;;0.60;;
52614;SDS011;38508;53.158;6.614;2023-04-24T14:06:06;3.20;;;0.80;;
52614;SDS011;38508;53.158;6.614;2023-04-24T14:08:32;3.05;;;0.55;;
52614;SDS011;38508;53.158;6.614;2023-04-24T14:10:58;2.65;;;0.68;;
52614;SDS011;38508;53.158;6.614;2023-04-24T14:13:24;5.97;;;0.75;;
52614;SDS011;38508;53.158;6.614;2023-04-24T14:15:49;7.55;;;0.77;;
52614;SDS011;38508;53.158;6.614;2023-04-24T14:18:17;7.03;;;1.20;;
52614;SDS011;38508;53.158;6.614;2023-04-24T14:20:43;5.72;;;1.27;;
52614;SDS011;38508;53.158;6.614;2023-04-24T14:23:10;9.63;;;1.75;;
52614;SDS011;38508;53.158;6.614;2023-04-24T14:25:35;8.45;;;1.88;;
52614;SDS011;38508;53.158;6.614;2023-04-24T14:28:01;7.13;;;1.63;;
52614;SDS011;38508;53.158;6.614;2023-04-24T14:30:27;10.43;;;1.67;;
52614;SDS011;38508;53.158;6.614;2023-04-24T14:32:53;8.50;;;2.47;;
52614;SDS011;38508;53.158;6.614;2023-04-24T14:35:18;16.30;;;1.90;;
52614;SDS011;38508;53.158;6.614;2023-04-24T14:37:44;9.82;;;2.60;;
52614;SDS011;38508;53.158;6.614;2023-04-24T14:40:10;12.48;;;2.40;;
52614;SDS011;38508;53.158;6.614;2023-04-24T14:42:36;12.05;;;2.38;;
52614;SDS011;38508;53.158;6.614;2023-04-24T14:45:02;14.90;;;2.35;;
52614;SDS011;38508;53.158;6.614;2023-04-24T14:47:27;13.10;;;2.38;;
52614;SDS011;38508;53.158;6.614;2023-04-24T14:49:54;17.75;;;2.28;;
52614;SDS011;38508;53.158;6.614;2023-04-24T14:52:20;10.73;;;2.40;;
52614;SDS011;38508;53.158;6.614;2023-04-24T14:54:46;12.70;;;2.13;;
52614;SDS011;38508;53.158;6.614;2023-04-24T14:57:11;8.57;;;2.25;;